sensor_id;sensor_type;location;lat;lon;timestamp;pressure;altitude;pressure_sealevel;temperature;humidity
21182;BME280;10749;46.296;7.524;2023-02-21T00:02:27;95512.59;;;9.87;37.79
21182;BME280;10749;46.296;7.524;2023-02-21T00:05:11;95514.88;;;9.82;38.42
21182;BME280;10749;46.296;7.524;2023-02-21T00:07:55;95515.91;;;9.81;38.52
21182;BME280;10749;46.296;7.524;2023-02-21T00:10:39;95512.44;;;9.81;38.05
21182;BME280;10749;46.296;7.524;2023-02-21T00:13:23;95508.94;;;9.80;38.36
21182;BME280;10749;46.296;7.524;2023-02-21T00:16:07;95503.34;;;9.83;38.19
21182;BME280;10749;46.296;7.524;2023-02-21T00:18:51;95506.94;;;9.74;38.59
21182;BME280;10749;46.296;7.524;2023-02-21T00:21:35;95499.00;;;9.74;38.36
21182;BME280;10749;46.296;7.524;2023-02-21T00:24:19;95504.28;;;9.74;38.25
21182;BME280;10749;46.296;7.524;2023-02-21T00:27:03;95501.50;;;9.76;38.49
21182;BME280;10749;46.296;7.524;2023-02-21T00:29:48;95498.84;;;9.76;38.35
21182;BME280;10749;46.296;7.524;2023-02-21T00:32:32;95493.09;;;9.80;38.53
21182;BME280;10749;46.296;7.524;2023-02-21T00:35:16;95491.28;;;9.81;38.29
21182;BME280;10749;46.296;7.524;2023-02-21T00:38:00;95486.13;;;9.79;38.24
21182;BME280;10749;46.296;7.524;2023-02-21T00:40:44;95483.34;;;9.81;38.09
21182;BME280;10749;46.296;7.524;2023-02-21T00:43:29;95480.19;;;9.77;38.49
21182;BME280;10749;46.296;7.524;2023-02-21T00:46:14;95481.16;;;9.68;38.65
21182;BME280;10749;46.296;7.524;2023-02-21T00:48:58;95479.16;;;9.70;38.36
21182;BME280;10749;46.296;7.524;2023-02-21T00:51:42;95479.16;;;9.70;38.38
21182;BME280;10749;46.296;7.524;2023-02-21T00:54:26;95476.66;;;9.60;38.75
21182;BME280;10749;46.296;7.524;2023-02-21T00:57:09;95478.09;;;9.55;38.63
21182;BME280;10749;46.296;7.524;2023-02-21T00:59:53;95480.88;;;9.53;38.47
21182;BME280;10749;46.296;7.524;2023-02-21T01:02:37;95479.03;;;9.46;39.09
21182;BME280;10749;46.296;7.524;2023-02-21T01:05:21;95476.53;;;9.44;38.73
21182;BME280;10749;46.296;7.524;2023-02-21T01:08:05;95482.97;;;9.42;38.48
21182;BME280;10749;46.296;7.524;2023-02-21T01:10:49;95470.28;;;9.45;38.56
21182;BME280;10749;46.296;7.524;2023-02-21T01:13:33;95466.81;;;9.45;38.63
21182;BME280;10749;46.296;7.524;2023-02-21T01:16:17;95471.59;;;9.41;38.37
21182;BME280;10749;46.296;7.524;2023-02-21T01:19:01;95467.22;;;9.32;39.10
21182;BME280;10749;46.296;7.524;2023-02-21T01:21:45;95464.78;;;9.31;38.96
21182;BME280;10749;46.296;7.524;2023-02-21T01:24:29;95461.75;;;9.25;39.13
21182;BME280;10749;46.296;7.524;2023-02-21T01:27:13;95461.91;;;9.24;39.17
21182;BME280;10749;46.296;7.524;2023-02-21T01:29:57;95463.44;;;9.26;39.33
21182;BME280;10749;46.296;7.524;2023-02-21T01:32:41;95459.63;;;9.29;39.34
21182;BME280;10749;46.296;7.524;2023-02-21T01:35:25;95450.59;;;9.32;39.42
21182;BME280;10749;46.296;7.524;2023-02-21T01:38:09;95463.78;;;9.32;39.51
21182;BME280;10749;46.296;7.524;2023-02-21T01:40:53;95460.63;;;9.28;39.75
21182;BME280;10749;46.296;7.524;2023-02-21T01:43:36;95453.16;;;9.23;39.91
21182;BME280;10749;46.296;7.524;2023-02-21T01:46:20;95445.19;;;9.15;39.94
21182;BME280;10749;46.296;7.524;2023-02-21T01:49:08;95444.38;;;9.15;39.55
21182;BME280;10749;46.296;7.524;2023-02-21T01:51:53;95451.63;;;9.13;39.73
21182;BME280;10749;46.296;7.524;2023-02-21T01:54:41;95445.34;;;9.14;39.63
21182;BME280;10749;46.296;7.524;2023-02-21T01:57:27;95440.03;;;9.06;40.12
21182;BME280;10749;46.296;7.524;2023-02-21T02:00:12;95448.56;;;9.00;40.17
21182;BME280;10749;46.296;7.524;2023-02-21T02:02:59;95439.81;;;8.99;39.82
21182;BME280;10749;46.296;7.524;2023-02-21T02:05:46;95439.47;;;8.94;39.90
21182;BME280;10749;46.296;7.524;2023-02-21T02:08:32;95438.78;;;8.92;40.04
21182;BME280;10749;46.296;7.524;2023-02-21T02:17:52;95428.16;;;8.84;40.39
21182;BME280;10749;46.296;7.524;2023-02-21T02:20:46;95431.41;;;8.78;40.28
21182;BME280;10749;46.296;7.524;2023-02-21T02:34:41;95410.28;;;8.78;40.43
21182;BME280;10749;46.296;7.524;2023-02-21T02:37:18;95406.31;;;8.74;40.39
21182;BME280;10749;46.296;7.524;2023-02-21T02:42:40;95407.78;;;8.68;40.62
21182;BME280;10749;46.296;7.524;2023-02-21T02:47:43;95404.00;;;8.71;40.62
21182;BME280;10749;46.296;7.524;2023-02-21T02:50:10;95394.91;;;8.65;41.02
21182;BME280;10749;46.296;7.524;2023-02-21T02:52:36;95394.41;;;8.70;40.39
21182;BME280;10749;46.296;7.524;2023-02-21T02:56:05;95386.81;;;8.67;40.34
21182;BME280;10749;46.296;7.524;2023-02-21T02:58:05;95385.97;;;8.66;40.76
21182;BME280;10749;46.296;7.524;2023-02-21T03:00:33;95387.44;;;8.61;41.09
21182;BME280;10749;46.296;7.524;2023-02-21T03:08:37;95381.41;;;8.51;41.06
21182;BME280;10749;46.296;7.524;2023-02-21T03:11:16;95370.28;;;8.57;41.29
21182;BME280;10749;46.296;7.524;2023-02-21T03:14:21;95360.31;;;8.51;41.28
21182;BME280;10749;46.296;7.524;2023-02-21T03:16:56;95360.31;;;8.51;41.16
21182;BME280;10749;46.296;7.524;2023-02-21T03:19:30;95366.06;;;8.46;40.96
21182;BME280;10749;46.296;7.524;2023-02-21T03:22:06;95363.94;;;8.50;41.13
21182;BME280;10749;46.296;7.524;2023-02-21T03:24:34;95365.00;;;8.57;41.21
21182;BME280;10749;46.296;7.524;2023-02-21T03:27:03;95360.50;;;8.57;41.15
21182;BME280;10749;46.296;7.524;2023-02-21T03:29:30;95359.06;;;8.63;41.27
21182;BME280;10749;46.296;7.524;2023-02-21T03:32:02;95362.09;;;8.68;40.90
21182;BME280;10749;46.296;7.524;2023-02-21T03:34:41;95358.75;;;8.66;40.70
21182;BME280;10749;46.296;7.524;2023-02-21T03:37:08;95358.88;;;8.56;41.12
21182;BME280;10749;46.296;7.524;2023-02-21T03:39:34;95354.91;;;8.52;41.11
21182;BME280;10749;46.296;7.524;2023-02-21T03:41:59;95360.63;;;8.48;41.33
21182;BME280;10749;46.296;7.524;2023-02-21T03:44:24;95352.03;;;8.46;41.05
21182;BME280;10749;46.296;7.524;2023-02-21T03:46:50;95356.00;;;8.50;41.11
21182;BME280;10749;46.296;7.524;2023-02-21T03:49:15;95353.09;;;8.53;40.98
21182;BME280;10749;46.296;7.524;2023-02-21T03:51:40;95363.00;;;8.59;41.39
21182;BME280;10749;46.296;7.524;2023-02-21T03:54:05;95358.09;;;8.64;41.04
21182;BME280;10749;46.296;7.524;2023-02-21T03:56:31;95360.50;;;8.57;41.13
21182;BME280;10749;46.296;7.524;2023-02-21T03:58:56;95359.50;;;8.50;41.21
21182;BME280;10749;46.296;7.524;2023-02-21T04:01:21;95357.09;;;8.39;41.28
21182;BME280;10749;46.296;7.524;2023-02-21T04:03:47;95363.81;;;8.33;41.50
21182;BME280;10749;46.296;7.524;2023-02-21T04:06:12;95354.84;;;8.26;41.66
21182;BME280;10749;46.296;7.524;2023-02-21T04:08:37;95358.06;;;8.20;41.72
21182;BME280;10749;46.296;7.524;2023-02-21T04:11:02;95352.59;;;8.14;41.74
21182;BME280;10749;46.296;7.524;2023-02-21T04:13:28;95351.16;;;8.19;41.85
21182;BME280;10749;46.296;7.524;2023-02-21T04:15:53;95350.47;;;8.17;41.75
21182;BME280;10749;46.296;7.524;2023-02-21T04:18:18;95354.63;;;8.20;41.82
21182;BME280;10749;46.296;7.524;2023-02-21T04:20:44;95351.00;;;8.21;41.84
21182;BME280;10749;46.296;7.524;2023-02-21T04:23:10;95353.50;;;8.22;41.67
21182;BME280;10749;46.296;7.524;2023-02-21T04:25:36;95351.44;;;8.16;41.94
21182;BME280;10749;46.296;7.524;2023-02-21T04:28:01;95353.81;;;8.19;42.06
21182;BME280;10749;46.296;7.524;2023-02-21T04:30:26;95343.09;;;8.21;41.88
21182;BME280;10749;46.296;7.524;2023-02-21T04:32:51;95348.81;;;8.16;41.82
21182;BME280;10749;46.296;7.524;2023-02-21T04:35:17;95345.34;;;8.16;41.69
21182;BME280;10749;46.296;7.524;2023-02-21T04:37:42;95353.25;;;8.16;41.50
21182;BME280;10749;46.296;7.524;2023-02-21T04:40:09;95349.81;;;8.15;42.03
21182;BME280;10749;46.296;7.524;2023-02-21T04:42:35;95352.38;;;8.07;42.13
21182;BME280;10749;46.296;7.524;2023-02-21T04:45:00;95353.34;;;8.06;42.50
21182;BME280;10749;46.296;7.524;2023-02-21T04:47:25;95352.38;;;8.07;41.74
21182;BME280;10749;46.296;7.524;2023-02-21T04:49:50;95362.69;;;8.01;42.10
21182;BME280;10749;46.296;7.524;2023-02-21T04:52:17;95359.59;;;8.05;42.24
21182;BME280;10749;46.296;7.524;2023-02-21T04:54:46;95361.25;;;8.06;42.02
21182;BME280;10749;46.296;7.524;2023-02-21T04:57:12;95356.31;;;8.03;42.10
21182;BME280;10749;46.296;7.524;2023-02-21T04:59:37;95361.56;;;8.03;42.31
21182;BME280;10749;46.296;7.524;2023-02-21T05:02:03;95366.03;;;8.03;42.51
21182;BME280;10749;46.296;7.524;2023-02-21T05:04:29;95364.50;;;8.00;42.41
21182;BME280;10749;46.296;7.524;2023-02-21T05:06:57;95355.91;;;7.98;42.34
21182;BME280;10749;46.296;7.524;2023-02-21T05:09:23;95353.28;;;7.98;42.49
21182;BME280;10749;46.296;7.524;2023-02-21T05:11:48;95353.28;;;7.98;42.57
21182;BME280;10749;46.296;7.524;2023-02-21T05:14:13;95347.69;;;8.01;42.49
21182;BME280;10749;46.296;7.524;2023-02-21T05:16:38;95352.22;;;8.09;42.36
21182;BME280;10749;46.296;7.524;2023-02-21T05:19:04;95343.47;;;8.08;42.26
21182;BME280;10749;46.296;7.524;2023-02-21T05:21:33;95348.28;;;8.13;42.59
21182;BME280;10749;46.296;7.524;2023-02-21T05:24:00;95345.44;;;8.06;42.59
21182;BME280;10749;46.296;7.524;2023-02-21T05:26:27;95350.34;;;8.01;42.57
21182;BME280;10749;46.296;7.524;2023-02-21T05:28:56;95354.13;;;7.99;42.51
21182;BME280;10749;46.296;7.524;2023-02-21T05:31:22;95350.47;;;8.00;42.90
21182;BME280;10749;46.296;7.524;2023-02-21T05:33:47;95349.19;;;8.04;42.87
21182;BME280;10749;46.296;7.524;2023-02-21T05:36:12;95346.41;;;8.05;42.40
21182;BME280;10749;46.296;7.524;2023-02-21T05:38:46;95342.75;;;7.98;42.52
21182;BME280;10749;46.296;7.524;2023-02-21T05:41:12;95351.94;;;7.94;42.58
21182;BME280;10749;46.296;7.524;2023-02-21T05:43:38;95353.88;;;7.92;42.71
21182;BME280;10749;46.296;7.524;2023-02-21T05:46:03;95348.59;;;7.92;42.80
21182;BME280;10749;46.296;7.524;2023-02-21T05:48:28;95347.13;;;7.89;42.92
21182;BME280;10749;46.296;7.524;2023-02-21T05:50:54;95351.41;;;7.91;42.77
21182;BME280;10749;46.296;7.524;2023-02-21T05:53:19;95354.50;;;7.86;42.84
21182;BME280;10749;46.296;7.524;2023-02-21T05:55:44;95343.56;;;7.81;42.73
21182;BME280;10749;46.296;7.524;2023-02-21T05:58:09;95344.84;;;7.77;42.91
21182;BME280;10749;46.296;7.524;2023-02-21T06:00:35;95345.38;;;7.80;42.85
21182;BME280;10749;46.296;7.524;2023-02-21T06:03:00;95351.78;;;7.78;42.72
21182;BME280;10749;46.296;7.524;2023-02-21T06:05:25;95347.34;;;7.78;42.89
21182;BME280;10749;46.296;7.524;2023-02-21T06:07:51;95344.53;;;7.80;42.92
21182;BME280;10749;46.296;7.524;2023-02-21T06:10:17;95347.88;;;7.82;43.03
21182;BME280;10749;46.296;7.524;2023-02-21T06:12:42;95340.56;;;7.76;43.28
21182;BME280;10749;46.296;7.524;2023-02-21T06:15:08;95344.31;;;7.73;43.50
21182;BME280;10749;46.296;7.524;2023-02-21T06:17:40;95336.25;;;7.75;43.49
21182;BME280;10749;46.296;7.524;2023-02-21T06:20:07;95343.19;;;7.76;43.23
21182;BME280;10749;46.296;7.524;2023-02-21T06:22:32;95329.63;;;7.71;43.23
21182;BME280;10749;46.296;7.524;2023-02-21T06:24:58;95330.72;;;7.78;43.45
21182;BME280;10749;46.296;7.524;2023-02-21T06:27:23;95335.66;;;7.81;43.32
21182;BME280;10749;46.296;7.524;2023-02-21T06:29:48;95332.19;;;7.80;43.63
21182;BME280;10749;46.296;7.524;2023-02-21T06:32:14;95328.97;;;7.86;43.44
21182;BME280;10749;46.296;7.524;2023-02-21T06:34:39;95330.91;;;7.84;43.64
21182;BME280;10749;46.296;7.524;2023-02-21T06:37:04;95331.38;;;7.80;43.41
21182;BME280;10749;46.296;7.524;2023-02-21T06:39:31;95327.63;;;7.82;43.60
21182;BME280;10749;46.296;7.524;2023-02-21T06:41:56;95327.97;;;7.87;43.58
21182;BME280;10749;46.296;7.524;2023-02-21T06:44:21;95332.19;;;7.98;43.40
21182;BME280;10749;46.296;7.524;2023-02-21T06:46:47;95320.00;;;7.97;43.38
21182;BME280;10749;46.296;7.524;2023-02-21T06:49:14;95321.59;;;7.90;43.48
21182;BME280;10749;46.296;7.524;2023-02-21T06:51:40;95327.00;;;7.88;43.57
21182;BME280;10749;46.296;7.524;2023-02-21T06:54:07;95333.41;;;7.86;43.86
21182;BME280;10749;46.296;7.524;2023-02-21T06:56:33;95338.97;;;7.83;43.74
21182;BME280;10749;46.296;7.524;2023-02-21T06:58:58;95334.38;;;7.85;43.65
21182;BME280;10749;46.296;7.524;2023-02-21T07:01:25;95337.09;;;7.93;43.22
21182;BME280;10749;46.296;7.524;2023-02-21T07:03:51;95333.41;;;7.86;43.58
21182;BME280;10749;46.296;7.524;2023-02-21T07:06:17;95337.69;;;7.87;43.62
21182;BME280;10749;46.296;7.524;2023-02-21T07:08:42;95343.25;;;7.84;43.55
21182;BME280;10749;46.296;7.524;2023-02-21T07:11:08;95337.84;;;7.85;44.16
21182;BME280;10749;46.296;7.524;2023-02-21T07:13:34;95350.28;;;7.93;43.50
21182;BME280;10749;46.296;7.524;2023-02-21T07:16:00;95349.97;;;7.96;43.95
21182;BME280;10749;46.296;7.524;2023-02-21T07:18:26;95345.66;;;7.95;43.86
21182;BME280;10749;46.296;7.524;2023-02-21T07:20:51;95349.13;;;7.96;43.04
21182;BME280;10749;46.296;7.524;2023-02-21T07:23:16;95347.50;;;7.95;43.29
21182;BME280;10749;46.296;7.524;2023-02-21T07:25:41;95342.69;;;7.90;43.56
21182;BME280;10749;46.296;7.524;2023-02-21T07:28:07;95354.03;;;7.91;43.66
21182;BME280;10749;46.296;7.524;2023-02-21T07:30:32;95345.00;;;7.93;43.98
21182;BME280;10749;46.296;7.524;2023-02-21T07:32:59;95350.41;;;7.92;43.96
21182;BME280;10749;46.296;7.524;2023-02-21T07:35:25;95354.72;;;7.93;43.52
21182;BME280;10749;46.296;7.524;2023-02-21T07:37:50;95357.22;;;7.94;42.95
21182;BME280;10749;46.296;7.524;2023-02-21T07:40:16;95357.88;;;7.96;42.93
21182;BME280;10749;46.296;7.524;2023-02-21T07:42:41;95362.47;;;7.94;43.40
21182;BME280;10749;46.296;7.524;2023-02-21T07:45:08;95355.91;;;7.98;43.69
21182;BME280;10749;46.296;7.524;2023-02-21T07:47:34;95356.59;;;8.00;43.77
21182;BME280;10749;46.296;7.524;2023-02-21T07:49:59;95351.16;;;8.02;43.64
21182;BME280;10749;46.296;7.524;2023-02-21T07:52:24;95358.38;;;8.00;43.89
21182;BME280;10749;46.296;7.524;2023-02-21T07:54:49;95357.72;;;7.98;43.89
21182;BME280;10749;46.296;7.524;2023-02-21T07:57:16;95351.63;;;7.97;43.24
21182;BME280;10749;46.296;7.524;2023-02-21T07:59:42;95353.03;;;7.92;43.47
21182;BME280;10749;46.296;7.524;2023-02-21T08:02:08;95354.19;;;7.89;43.75
21182;BME280;10749;46.296;7.524;2023-02-21T08:04:35;95348.69;;;8.00;43.54
21182;BME280;10749;46.296;7.524;2023-02-21T08:07:02;95353.66;;;8.03;43.57
21182;BME280;10749;46.296;7.524;2023-02-21T08:09:28;95349.56;;;8.09;43.81
21182;BME280;10749;46.296;7.524;2023-02-21T08:11:53;95354.16;;;8.24;44.20
21182;BME280;10749;46.296;7.524;2023-02-21T08:14:18;95343.75;;;8.41;44.24
21182;BME280;10749;46.296;7.524;2023-02-21T08:16:43;95343.88;;;8.57;44.20
21182;BME280;10749;46.296;7.524;2023-02-21T08:19:09;95343.66;;;8.76;44.13
21182;BME280;10749;46.296;7.524;2023-02-21T08:21:34;95341.16;;;9.00;43.67
21182;BME280;10749;46.296;7.524;2023-02-21T08:24:00;95341.88;;;9.10;43.72
21182;BME280;10749;46.296;7.524;2023-02-21T08:26:25;95338.94;;;9.21;44.35
21182;BME280;10749;46.296;7.524;2023-02-21T08:28:50;95341.97;;;9.43;43.63
21182;BME280;10749;46.296;7.524;2023-02-21T08:31:16;95343.69;;;9.60;44.03
21182;BME280;10749;46.296;7.524;2023-02-21T08:33:43;95347.34;;;9.83;43.81
21182;BME280;10749;46.296;7.524;2023-02-21T08:36:09;95337.47;;;9.93;44.17
21182;BME280;10749;46.296;7.524;2023-02-21T08:38:34;95345.06;;;10.04;44.08
21182;BME280;10749;46.296;7.524;2023-02-21T08:41:00;95339.78;;;10.12;44.17
21182;BME280;10749;46.296;7.524;2023-02-21T08:43:26;95333.88;;;10.18;43.29
21182;BME280;10749;46.296;7.524;2023-02-21T08:45:53;95327.75;;;10.18;43.14
21182;BME280;10749;46.296;7.524;2023-02-21T08:48:18;95333.53;;;10.22;43.20
21182;BME280;10749;46.296;7.524;2023-02-21T08:50:43;95325.94;;;10.27;43.63
21182;BME280;10749;46.296;7.524;2023-02-21T08:53:12;95320.31;;;10.30;43.48
21182;BME280;10749;46.296;7.524;2023-02-21T08:55:37;95315.66;;;10.32;43.45
21182;BME280;10749;46.296;7.524;2023-02-21T08:58:02;95318.66;;;10.37;43.68
21182;BME280;10749;46.296;7.524;2023-02-21T09:00:27;95309.38;;;10.41;43.53
21182;BME280;10749;46.296;7.524;2023-02-21T09:02:54;95308.72;;;10.47;43.34
21182;BME280;10749;46.296;7.524;2023-02-21T09:05:22;95311.69;;;10.44;44.00
21182;BME280;10749;46.296;7.524;2023-02-21T09:07:50;95300.78;;;10.55;43.43
21182;BME280;10749;46.296;7.524;2023-02-21T09:10:16;95293.81;;;10.62;43.55
21182;BME280;10749;46.296;7.524;2023-02-21T09:12:41;95297.75;;;10.74;43.05
21182;BME280;10749;46.296;7.524;2023-02-21T09:15:07;95291.44;;;10.83;43.31
21182;BME280;10749;46.296;7.524;2023-02-21T09:17:33;95291.41;;;10.91;43.47
21182;BME280;10749;46.296;7.524;2023-02-21T09:20:00;95282.25;;;11.02;43.81
21182;BME280;10749;46.296;7.524;2023-02-21T09:22:26;95283.75;;;11.04;43.84
21182;BME280;10749;46.296;7.524;2023-02-21T09:24:52;95283.25;;;11.09;43.71
21182;BME280;10749;46.296;7.524;2023-02-21T09:27:17;95283.53;;;11.14;43.58
21182;BME280;10749;46.296;7.524;2023-02-21T09:29:42;95277.38;;;11.22;43.61
21182;BME280;10749;46.296;7.524;2023-02-21T09:32:09;95277.34;;;11.30;43.64
21182;BME280;10749;46.296;7.524;2023-02-21T09:34:34;95282.88;;;11.43;43.26
21182;BME280;10749;46.296;7.524;2023-02-21T09:37:03;95273.06;;;11.51;43.01
21182;BME280;10749;46.296;7.524;2023-02-21T09:39:29;95263.97;;;11.54;43.71
21182;BME280;10749;46.296;7.524;2023-02-21T09:41:54;95261.38;;;11.69;43.16
21182;BME280;10749;46.296;7.524;2023-02-21T09:44:23;95256.47;;;11.88;43.34
21182;BME280;10749;46.296;7.524;2023-02-21T09:46:56;95260.28;;;12.09;43.53
21182;BME280;10749;46.296;7.524;2023-02-21T09:49:27;95255.25;;;12.14;43.30
21182;BME280;10749;46.296;7.524;2023-02-21T09:51:55;95257.50;;;12.25;43.38
21182;BME280;10749;46.296;7.524;2023-02-21T09:54:43;95252.72;;;12.35;43.34
21182;BME280;10749;46.296;7.524;2023-02-21T09:57:12;95252.41;;;12.53;43.33
21182;BME280;10749;46.296;7.524;2023-02-21T09:59:38;95249.75;;;12.67;43.07
21182;BME280;10749;46.296;7.524;2023-02-21T10:07:38;95235.34;;;13.06;43.29
21182;BME280;10749;46.296;7.524;2023-02-21T10:10:17;95236.72;;;13.31;43.26
21182;BME280;10749;46.296;7.524;2023-02-21T10:13:00;95233.84;;;13.47;43.24
21182;BME280;10749;46.296;7.524;2023-02-21T10:15:48;95235.78;;;13.74;43.19
21182;BME280;10749;46.296;7.524;2023-02-21T10:20:57;95225.50;;;13.71;42.38
21182;BME280;10749;46.296;7.524;2023-02-21T10:23:33;95230.50;;;13.81;42.79
21182;BME280;10749;46.296;7.524;2023-02-21T10:26:06;95221.31;;;14.05;43.17
21182;BME280;10749;46.296;7.524;2023-02-21T10:28:34;95214.78;;;14.28;42.88
21182;BME280;10749;46.296;7.524;2023-02-21T10:31:04;95217.06;;;14.59;43.15
21182;BME280;10749;46.296;7.524;2023-02-21T10:33:35;95217.38;;;14.77;43.04
21182;BME280;10749;46.296;7.524;2023-02-21T10:36:01;95202.31;;;14.98;42.98
21182;BME280;10749;46.296;7.524;2023-02-21T10:38:26;95206.25;;;15.08;42.64
21182;BME280;10749;46.296;7.524;2023-02-21T10:40:55;95202.16;;;15.06;42.34
21182;BME280;10749;46.296;7.524;2023-02-21T10:43:38;95200.66;;;14.97;42.17
21182;BME280;10749;46.296;7.524;2023-02-21T10:46:30;95186.78;;;15.08;42.59
21182;BME280;10749;46.296;7.524;2023-02-21T10:49:24;95182.00;;;15.44;42.66
21182;BME280;10749;46.296;7.524;2023-02-21T10:54:28;95169.78;;;16.09;42.76
21182;BME280;10749;46.296;7.524;2023-02-21T10:56:54;95164.03;;;16.12;42.43
21182;BME280;10749;46.296;7.524;2023-02-21T10:59:26;95158.31;;;16.02;42.04
21182;BME280;10749;46.296;7.524;2023-02-21T11:01:53;95152.13;;;16.08;42.04
21182;BME280;10749;46.296;7.524;2023-02-21T11:06:47;95138.75;;;16.47;42.67
21182;BME280;10749;46.296;7.524;2023-02-21T11:15:16;95122.31;;;17.08;41.88
21182;BME280;10749;46.296;7.524;2023-02-21T11:17:42;95118.31;;;17.30;42.01
21182;BME280;10749;46.296;7.524;2023-02-21T11:22:42;95107.28;;;17.51;41.43
21182;BME280;10749;46.296;7.524;2023-02-21T11:28:04;95078.69;;;17.77;41.16
21182;BME280;10749;46.296;7.524;2023-02-21T11:30:33;95083.28;;;17.94;40.78
21182;BME280;10749;46.296;7.524;2023-02-21T11:32:59;95074.41;;;18.01;40.65
21182;BME280;10749;46.296;7.524;2023-02-21T11:35:35;95063.94;;;18.17;40.33
21182;BME280;10749;46.296;7.524;2023-02-21T11:38:07;95063.38;;;18.33;40.75
21182;BME280;10749;46.296;7.524;2023-02-21T11:40:46;95055.03;;;18.41;40.36
21182;BME280;10749;46.296;7.524;2023-02-21T11:51:33;95032.63;;;19.20;39.67
21182;BME280;10749;46.296;7.524;2023-02-21T11:54:02;95029.88;;;19.38;39.19
21182;BME280;10749;46.296;7.524;2023-02-21T12:01:49;95001.28;;;19.74;38.33
21182;BME280;10749;46.296;7.524;2023-02-21T12:04:40;94996.38;;;19.71;38.28
21182;BME280;10749;46.296;7.524;2023-02-21T12:07:21;94993.00;;;19.99;37.78
21182;BME280;10749;46.296;7.524;2023-02-21T12:15:20;94974.13;;;20.57;37.46
21182;BME280;10749;46.296;7.524;2023-02-21T12:17:53;94971.25;;;20.75;37.64
21182;BME280;10749;46.296;7.524;2023-02-21T12:23:21;94966.69;;;21.04;37.10
21182;BME280;10749;46.296;7.524;2023-02-21T12:28:47;94951.47;;;21.09;35.90
21182;BME280;10749;46.296;7.524;2023-02-21T12:37:03;94936.38;;;21.37;35.19
21182;BME280;10749;46.296;7.524;2023-02-21T12:42:07;94929.09;;;21.54;35.49
21182;BME280;10749;46.296;7.524;2023-02-21T12:45:06;94924.69;;;21.48;36.08
21182;BME280;10749;46.296;7.524;2023-02-21T12:47:52;94915.69;;;21.76;35.69
21182;BME280;10749;46.296;7.524;2023-02-21T12:50:22;94918.56;;;22.02;35.41
21182;BME280;10749;46.296;7.524;2023-02-21T12:52:55;94907.91;;;22.13;35.06
21182;BME280;10749;46.296;7.524;2023-02-21T12:55:32;94901.09;;;22.27;34.99
21182;BME280;10749;46.296;7.524;2023-02-21T12:58:03;94896.69;;;22.42;34.18
21182;BME280;10749;46.296;7.524;2023-02-21T13:00:40;94890.53;;;22.47;34.09
21182;BME280;10749;46.296;7.524;2023-02-21T13:06:03;94879.34;;;22.82;33.85
21182;BME280;10749;46.296;7.524;2023-02-21T13:08:34;94874.88;;;22.92;34.48
21182;BME280;10749;46.296;7.524;2023-02-21T13:11:15;94876.41;;;23.10;34.04
21182;BME280;10749;46.296;7.524;2023-02-21T13:13:43;94868.13;;;23.22;33.54
21182;BME280;10749;46.296;7.524;2023-02-21T13:16:10;94861.56;;;23.13;33.05
21182;BME280;10749;46.296;7.524;2023-02-21T13:18:51;94860.28;;;23.20;32.96
21182;BME280;10749;46.296;7.524;2023-02-21T13:29:25;94847.44;;;23.69;32.05
21182;BME280;10749;46.296;7.524;2023-02-21T13:32:11;94845.88;;;23.78;31.57
21182;BME280;10749;46.296;7.524;2023-02-21T13:34:43;94848.00;;;23.71;33.07
21182;BME280;10749;46.296;7.524;2023-02-21T13:37:16;94840.63;;;23.62;32.38
21182;BME280;10749;46.296;7.524;2023-02-21T13:39:50;94835.06;;;23.78;32.09
21182;BME280;10749;46.296;7.524;2023-02-21T13:42:19;94831.47;;;24.10;31.98
21182;BME280;10749;46.296;7.524;2023-02-21T13:44:48;94835.25;;;24.14;32.12
21182;BME280;10749;46.296;7.524;2023-02-21T13:49:57;94826.97;;;24.30;31.52
21182;BME280;10749;46.296;7.524;2023-02-21T13:55:23;94818.69;;;24.72;30.44
21182;BME280;10749;46.296;7.524;2023-02-21T14:10:54;94799.81;;;25.28;29.86
21182;BME280;10749;46.296;7.524;2023-02-21T14:21:34;94790.72;;;26.08;28.39
21182;BME280;10749;46.296;7.524;2023-02-21T14:24:02;94778.34;;;25.77;28.30
21182;BME280;10749;46.296;7.524;2023-02-21T14:26:48;94779.47;;;25.31;28.64
21182;BME280;10749;46.296;7.524;2023-02-21T14:29:27;94774.88;;;25.06;28.44
21182;BME280;10749;46.296;7.524;2023-02-21T14:32:15;94771.13;;;24.97;28.16
21182;BME280;10749;46.296;7.524;2023-02-21T14:39:48;94765.84;;;24.29;27.69
21182;BME280;10749;46.296;7.524;2023-02-21T14:53:35;94751.75;;;22.28;28.41
21182;BME280;10749;46.296;7.524;2023-02-21T14:55:59;94759.28;;;22.04;28.36
21182;BME280;10749;46.296;7.524;2023-02-21T15:01:07;94750.94;;;21.62;28.35
21182;BME280;10749;46.296;7.524;2023-02-21T15:03:46;94748.25;;;21.40;28.61
21182;BME280;10749;46.296;7.524;2023-02-21T15:06:18;94747.97;;;21.20;28.68
21182;BME280;10749;46.296;7.524;2023-02-21T15:08:51;94743.63;;;21.02;28.75
21182;BME280;10749;46.296;7.524;2023-02-21T15:11:27;94746.34;;;20.86;28.63
21182;BME280;10749;46.296;7.524;2023-02-21T15:16:38;94750.66;;;20.53;29.11
21182;BME280;10749;46.296;7.524;2023-02-21T15:19:05;94756.81;;;20.37;28.83
21182;BME280;10749;46.296;7.524;2023-02-21T15:21:41;94755.59;;;20.16;29.28
21182;BME280;10749;46.296;7.524;2023-02-21T15:24:14;94748.66;;;20.04;29.35
21182;BME280;10749;46.296;7.524;2023-02-21T15:26:40;94752.44;;;19.91;29.28
21182;BME280;10749;46.296;7.524;2023-02-21T15:29:09;94747.91;;;19.80;29.60
21182;BME280;10749;46.296;7.524;2023-02-21T15:34:21;94747.38;;;19.55;30.10
21182;BME280;10749;46.296;7.524;2023-02-21T15:39:33;94749.16;;;19.38;30.31
21182;BME280;10749;46.296;7.524;2023-02-21T15:42:02;94745.69;;;19.25;30.05
21182;BME280;10749;46.296;7.524;2023-02-21T15:44:33;94747.91;;;19.17;30.26
21182;BME280;10749;46.296;7.524;2023-02-21T15:47:11;94746.47;;;19.14;30.23
21182;BME280;10749;46.296;7.524;2023-02-21T15:49:44;94740.66;;;18.94;30.15
21182;BME280;10749;46.296;7.524;2023-02-21T15:52:30;94742.28;;;18.72;30.33
21182;BME280;10749;46.296;7.524;2023-02-21T15:55:33;94737.03;;;18.54;30.31
21182;BME280;10749;46.296;7.524;2023-02-21T15:58:13;94738.50;;;18.50;30.57
21182;BME280;10749;46.296;7.524;2023-02-21T16:00:44;94740.22;;;18.32;30.94
21182;BME280;10749;46.296;7.524;2023-02-21T16:06:14;94744.59;;;18.15;30.70